sensor_id;sensor_type;location;lat;lon;timestamp;pressure;altitude;pressure_sealevel;temperature;humidity
19005;BME280;9635;52.078;8.648;2023-03-21T00:04:31;100531.22;;;7.81;73.81
19005;BME280;9635;52.078;8.648;2023-03-21T00:09:52;100528.47;;;7.82;74.33
19005;BME280;9635;52.078;8.648;2023-03-21T00:15:07;100524.50;;;7.88;73.76
19005;BME280;9635;52.078;8.648;2023-03-21T00:20:11;100513.59;;;7.91;73.52
19005;BME280;9635;52.078;8.648;2023-03-21T00:25:16;100508.91;;;8.07;72.79
19005;BME280;9635;52.078;8.648;2023-03-21T00:30:19;100516.09;;;8.07;72.71
19005;BME280;9635;52.078;8.648;2023-03-21T00:35:25;100514.88;;;7.85;73.32
19005;BME280;9635;52.078;8.648;2023-03-21T00:40:48;100501.50;;;7.85;74.29
19005;BME280;9635;52.078;8.648;2023-03-21T00:45:51;100499.75;;;7.84;74.59
19005;BME280;9635;52.078;8.648;2023-03-21T00:50:57;100494.63;;;7.81;74.80
19005;BME280;9635;52.078;8.648;2023-03-21T00:56:01;100492.06;;;7.92;74.05
19005;BME280;9635;52.078;8.648;2023-03-21T01:01:04;100489.97;;;8.10;73.52
19005;BME280;9635;52.078;8.648;2023-03-21T01:06:11;100483.06;;;7.68;75.98
19005;BME280;9635;52.078;8.648;2023-03-21T01:11:17;100484.47;;;7.73;76.69
19005;BME280;9635;52.078;8.648;2023-03-21T01:16:20;100473.47;;;7.38;79.69
19005;BME280;9635;52.078;8.648;2023-03-21T01:21:24;100476.38;;;7.48;80.22
19005;BME280;9635;52.078;8.648;2023-03-21T01:26:28;100483.72;;;7.71;79.69
19005;BME280;9635;52.078;8.648;2023-03-21T01:31:31;100478.63;;;7.54;80.56
19005;BME280;9635;52.078;8.648;2023-03-21T01:36:35;100472.97;;;7.59;81.15
19005;BME280;9635;52.078;8.648;2023-03-21T01:41:42;100470.78;;;7.38;82.67
19005;BME280;9635;52.078;8.648;2023-03-21T01:46:57;100462.97;;;7.35;83.44
19005;BME280;9635;52.078;8.648;2023-03-21T01:52:26;100465.25;;;7.41;83.83
19005;BME280;9635;52.078;8.648;2023-03-21T01:57:45;100450.50;;;7.48;83.77
19005;BME280;9635;52.078;8.648;2023-03-21T02:03:08;100450.19;;;7.53;83.88
19005;BME280;9635;52.078;8.648;2023-03-21T02:08:32;100450.06;;;7.42;84.38
19005;BME280;9635;52.078;8.648;2023-03-21T02:13:45;100435.94;;;7.40;84.53
19005;BME280;9635;52.078;8.648;2023-03-21T02:18:55;100434.78;;;7.44;84.87
19005;BME280;9635;52.078;8.648;2023-03-21T02:36:14;100415.56;;;7.52;85.23
19005;BME280;9635;52.078;8.648;2023-03-21T02:41:25;100417.13;;;7.54;85.23
19005;BME280;9635;52.078;8.648;2023-03-21T02:46:43;100420.78;;;7.53;85.40
19005;BME280;9635;52.078;8.648;2023-03-21T02:52:01;100409.63;;;7.34;86.49
19005;BME280;9635;52.078;8.648;2023-03-21T02:57:20;100409.38;;;7.24;86.82
19005;BME280;9635;52.078;8.648;2023-03-21T03:02:33;100403.72;;;7.28;86.62
19005;BME280;9635;52.078;8.648;2023-03-21T03:07:39;100406.91;;;7.21;87.00
19005;BME280;9635;52.078;8.648;2023-03-21T03:12:56;100410.69;;;7.31;87.39
19005;BME280;9635;52.078;8.648;2023-03-21T03:18:11;100414.25;;;7.44;86.92
19005;BME280;9635;52.078;8.648;2023-03-21T03:23:23;100401.75;;;7.45;87.38
19005;BME280;9635;52.078;8.648;2023-03-21T03:28:29;100402.94;;;7.54;87.01
19005;BME280;9635;52.078;8.648;2023-03-21T03:33:37;100401.31;;;7.51;87.25
19005;BME280;9635;52.078;8.648;2023-03-21T03:38:43;100390.09;;;7.59;86.99
19005;BME280;9635;52.078;8.648;2023-03-21T03:43:51;100394.94;;;7.66;86.69
19005;BME280;9635;52.078;8.648;2023-03-21T03:49:03;100401.06;;;7.28;88.68
19005;BME280;9635;52.078;8.648;2023-03-21T03:54:11;100391.69;;;7.48;87.45
19005;BME280;9635;52.078;8.648;2023-03-21T03:59:17;100391.28;;;7.67;86.98
19005;BME280;9635;52.078;8.648;2023-03-21T04:04:35;100389.16;;;7.72;86.64
19005;BME280;9635;52.078;8.648;2023-03-21T04:09:38;100387.66;;;7.81;86.54
19005;BME280;9635;52.078;8.648;2023-03-21T04:14:50;100378.56;;;7.84;86.28
19005;BME280;9635;52.078;8.648;2023-03-21T04:19:57;100379.09;;;7.89;86.55
19005;BME280;9635;52.078;8.648;2023-03-21T04:25:12;100376.97;;;7.94;85.94
19005;BME280;9635;52.078;8.648;2023-03-21T04:30:34;100382.41;;;7.92;85.70
19005;BME280;9635;52.078;8.648;2023-03-21T04:35:45;100376.00;;;7.95;85.03
19005;BME280;9635;52.078;8.648;2023-03-21T04:40:48;100369.59;;;7.85;83.77
19005;BME280;9635;52.078;8.648;2023-03-21T04:45:52;100371.28;;;7.73;83.42
19005;BME280;9635;52.078;8.648;2023-03-21T04:50:56;100360.38;;;7.50;83.00
19005;BME280;9635;52.078;8.648;2023-03-21T04:56:02;100351.81;;;7.84;81.95
19005;BME280;9635;52.078;8.648;2023-03-21T05:01:06;100351.59;;;7.87;81.59
19005;BME280;9635;52.078;8.648;2023-03-21T05:06:09;100356.63;;;7.91;81.16
19005;BME280;9635;52.078;8.648;2023-03-21T05:11:12;100348.09;;;7.99;80.63
19005;BME280;9635;52.078;8.648;2023-03-21T05:16:16;100363.25;;;8.11;80.95
19005;BME280;9635;52.078;8.648;2023-03-21T05:21:19;100354.81;;;8.05;79.73
19005;BME280;9635;52.078;8.648;2023-03-21T05:26:24;100348.25;;;8.09;79.64
19005;BME280;9635;52.078;8.648;2023-03-21T05:31:36;100352.53;;;8.11;79.04
19005;BME280;9635;52.078;8.648;2023-03-21T05:36:43;100345.56;;;8.22;79.21
19005;BME280;9635;52.078;8.648;2023-03-21T05:41:46;100339.59;;;8.18;78.52
19005;BME280;9635;52.078;8.648;2023-03-21T05:46:50;100340.53;;;8.30;78.04
19005;BME280;9635;52.078;8.648;2023-03-21T05:51:59;100345.56;;;8.22;77.30
19005;BME280;9635;52.078;8.648;2023-03-21T05:57:03;100343.91;;;8.45;77.10
19005;BME280;9635;52.078;8.648;2023-03-21T06:02:25;100340.50;;;8.43;76.47
19005;BME280;9635;52.078;8.648;2023-03-21T06:07:32;100344.59;;;8.48;75.78
19005;BME280;9635;52.078;8.648;2023-03-21T06:12:36;100352.78;;;8.58;75.11
19005;BME280;9635;52.078;8.648;2023-03-21T06:17:59;100348.81;;;8.64;74.66
19005;BME280;9635;52.078;8.648;2023-03-21T06:23:02;100348.38;;;8.70;73.70
19005;BME280;9635;52.078;8.648;2023-03-21T06:28:05;100349.28;;;8.81;73.18
19005;BME280;9635;52.078;8.648;2023-03-21T06:33:14;100345.34;;;8.98;72.86
19005;BME280;9635;52.078;8.648;2023-03-21T06:38:18;100355.31;;;8.96;72.02
19005;BME280;9635;52.078;8.648;2023-03-21T06:43:22;100342.31;;;9.03;72.24
19005;BME280;9635;52.078;8.648;2023-03-21T06:48:27;100339.19;;;9.09;71.96
19005;BME280;9635;52.078;8.648;2023-03-21T06:53:31;100347.31;;;9.08;71.69
19005;BME280;9635;52.078;8.648;2023-03-21T06:58:57;100349.56;;;9.14;71.26
19005;BME280;9635;52.078;8.648;2023-03-21T07:04:21;100349.50;;;9.38;70.60
19005;BME280;9635;52.078;8.648;2023-03-21T07:09:24;100345.44;;;9.32;70.34
19005;BME280;9635;52.078;8.648;2023-03-21T07:14:32;100347.47;;;9.53;70.11
19005;BME280;9635;52.078;8.648;2023-03-21T07:19:36;100346.63;;;9.17;70.48
19005;BME280;9635;52.078;8.648;2023-03-21T07:24:39;100347.97;;;9.58;69.90
19005;BME280;9635;52.078;8.648;2023-03-21T07:29:42;100355.13;;;9.46;69.65
19005;BME280;9635;52.078;8.648;2023-03-21T07:34:48;100349.56;;;9.60;69.44
19005;BME280;9635;52.078;8.648;2023-03-21T07:39:52;100352.06;;;9.39;69.67
19005;BME280;9635;52.078;8.648;2023-03-21T07:44:59;100358.22;;;9.64;69.19
19005;BME280;9635;52.078;8.648;2023-03-21T07:50:09;100347.97;;;9.58;69.65
19005;BME280;9635;52.078;8.648;2023-03-21T07:55:11;100358.13;;;9.77;69.25
19005;BME280;9635;52.078;8.648;2023-03-21T08:00:15;100354.84;;;9.38;70.07
19005;BME280;9635;52.078;8.648;2023-03-21T08:05:26;100360.28;;;9.14;72.08
19005;BME280;9635;52.078;8.648;2023-03-21T08:10:30;100364.88;;;8.88;74.16
19005;BME280;9635;52.078;8.648;2023-03-21T08:15:33;100358.72;;;8.98;74.28
19005;BME280;9635;52.078;8.648;2023-03-21T08:20:37;100359.53;;;9.12;74.47
19005;BME280;9635;52.078;8.648;2023-03-21T08:25:40;100356.13;;;9.21;75.10
19005;BME280;9635;52.078;8.648;2023-03-21T08:30:43;100363.09;;;9.23;76.32
19005;BME280;9635;52.078;8.648;2023-03-21T08:35:47;100365.53;;;8.42;78.49
19005;BME280;9635;52.078;8.648;2023-03-21T08:40:50;100364.03;;;7.88;82.24
19005;BME280;9635;52.078;8.648;2023-03-21T08:45:53;100370.81;;;8.30;81.84
19005;BME280;9635;52.078;8.648;2023-03-21T08:50:59;100365.84;;;8.63;81.66
19005;BME280;9635;52.078;8.648;2023-03-21T08:56:03;100366.81;;;8.86;81.33
19005;BME280;9635;52.078;8.648;2023-03-21T09:01:06;100356.19;;;8.73;81.72
19005;BME280;9635;52.078;8.648;2023-03-21T09:06:13;100361.88;;;8.68;81.68
19005;BME280;9635;52.078;8.648;2023-03-21T09:11:16;100357.28;;;8.57;82.15
19005;BME280;9635;52.078;8.648;2023-03-21T09:16:18;100360.72;;;8.59;82.18
19005;BME280;9635;52.078;8.648;2023-03-21T09:21:23;100368.31;;;8.53;82.41
19005;BME280;9635;52.078;8.648;2023-03-21T09:26:26;100350.47;;;8.53;83.30
19005;BME280;9635;52.078;8.648;2023-03-21T09:31:29;100364.69;;;8.54;84.06
19005;BME280;9635;52.078;8.648;2023-03-21T09:36:33;100368.72;;;8.10;85.70
19005;BME280;9635;52.078;8.648;2023-03-21T09:41:49;100356.38;;;8.33;85.55
19005;BME280;9635;52.078;8.648;2023-03-21T09:47:01;100368.41;;;8.02;86.52
19005;BME280;9635;52.078;8.648;2023-03-21T09:52:11;100360.41;;;8.38;86.44
19005;BME280;9635;52.078;8.648;2023-03-21T09:57:26;100353.69;;;8.46;86.78
19005;BME280;9635;52.078;8.648;2023-03-21T10:02:35;100352.22;;;8.66;86.06
19005;BME280;9635;52.078;8.648;2023-03-21T10:07:45;100354.13;;;8.76;85.31
19005;BME280;9635;52.078;8.648;2023-03-21T10:12:53;100361.19;;;8.77;84.92
19005;BME280;9635;52.078;8.648;2023-03-21T10:17:59;100365.22;;;8.83;84.96
19005;BME280;9635;52.078;8.648;2023-03-21T10:23:06;100347.50;;;8.69;84.54
19005;BME280;9635;52.078;8.648;2023-03-21T10:28:14;100337.72;;;8.81;84.95
19005;BME280;9635;52.078;8.648;2023-03-21T10:33:19;100334.53;;;9.00;84.77
19005;BME280;9635;52.078;8.648;2023-03-21T10:38:25;100337.50;;;9.19;84.34
19005;BME280;9635;52.078;8.648;2023-03-21T10:43:35;100331.06;;;9.22;83.27
19005;BME280;9635;52.078;8.648;2023-03-21T10:48:40;100322.63;;;9.73;82.62
19005;BME280;9635;52.078;8.648;2023-03-21T10:53:51;100321.34;;;9.43;82.45
19005;BME280;9635;52.078;8.648;2023-03-21T10:58:57;100325.44;;;9.60;82.61
19005;BME280;9635;52.078;8.648;2023-03-21T11:04:06;100320.50;;;9.43;83.19
19005;BME280;9635;52.078;8.648;2023-03-21T11:09:14;100316.03;;;9.55;82.85
19005;BME280;9635;52.078;8.648;2023-03-21T11:14:30;100314.69;;;9.49;81.91
19005;BME280;9635;52.078;8.648;2023-03-21T11:19:34;100318.66;;;9.43;82.35
19005;BME280;9635;52.078;8.648;2023-03-21T11:24:39;100318.06;;;9.40;82.58
19005;BME280;9635;52.078;8.648;2023-03-21T11:29:45;100311.94;;;9.26;83.08
19005;BME280;9635;52.078;8.648;2023-03-21T11:34:52;100312.56;;;9.30;83.25
19005;BME280;9635;52.078;8.648;2023-03-21T11:40:12;100308.91;;;8.96;84.60
19005;BME280;9635;52.078;8.648;2023-03-21T11:45:22;100310.59;;;9.21;84.20
19005;BME280;9635;52.078;8.648;2023-03-21T11:50:28;100296.50;;;9.41;82.86
19005;BME280;9635;52.078;8.648;2023-03-21T11:55:41;100293.25;;;9.60;83.21
19005;BME280;9635;52.078;8.648;2023-03-21T12:00:50;100271.41;;;9.42;82.88
19005;BME280;9635;52.078;8.648;2023-03-21T12:06:01;100275.91;;;9.42;82.27
19005;BME280;9635;52.078;8.648;2023-03-21T12:11:10;100260.81;;;9.41;82.49
19005;BME280;9635;52.078;8.648;2023-03-21T12:16:40;100257.75;;;9.57;82.04
19005;BME280;9635;52.078;8.648;2023-03-21T12:21:54;100249.44;;;9.26;83.86
19005;BME280;9635;52.078;8.648;2023-03-21T12:27:09;100248.44;;;9.16;84.73
19005;BME280;9635;52.078;8.648;2023-03-21T12:32:30;100242.66;;;9.44;84.55
19005;BME280;9635;52.078;8.648;2023-03-21T12:37:37;100233.88;;;9.42;85.15
19005;BME280;9635;52.078;8.648;2023-03-21T12:42:56;100231.03;;;9.21;85.11
19005;BME280;9635;52.078;8.648;2023-03-21T12:48:13;100208.03;;;9.53;84.74
19005;BME280;9635;52.078;8.648;2023-03-21T12:53:35;100220.22;;;9.34;84.90
19005;BME280;9635;52.078;8.648;2023-03-21T12:58:46;100211.81;;;9.27;85.24
19005;BME280;9635;52.078;8.648;2023-03-21T13:03:57;100199.22;;;9.73;84.59
19005;BME280;9635;52.078;8.648;2023-03-21T13:09:06;100212.66;;;9.50;84.49
19005;BME280;9635;52.078;8.648;2023-03-21T13:14:17;100210.47;;;9.44;84.75
19005;BME280;9635;52.078;8.648;2023-03-21T13:19:27;100216.31;;;9.49;84.77
19005;BME280;9635;52.078;8.648;2023-03-21T13:24:37;100202.03;;;9.38;85.75
19005;BME280;9635;52.078;8.648;2023-03-21T13:29:45;100190.69;;;9.68;84.24
19005;BME280;9635;52.078;8.648;2023-03-21T13:34:53;100175.97;;;9.62;84.97
19005;BME280;9635;52.078;8.648;2023-03-21T13:40:00;100178.66;;;9.51;83.39
19005;BME280;9635;52.078;8.648;2023-03-21T13:45:22;100173.50;;;9.70;83.76
19005;BME280;9635;52.078;8.648;2023-03-21T13:50:35;100157.50;;;10.03;82.15
19005;BME280;9635;52.078;8.648;2023-03-21T13:55:40;100163.91;;;9.57;81.68
19005;BME280;9635;52.078;8.648;2023-03-21T14:01:04;100151.56;;;10.31;79.66
19005;BME280;9635;52.078;8.648;2023-03-21T14:06:12;100143.53;;;10.52;78.78
19005;BME280;9635;52.078;8.648;2023-03-21T14:11:17;100133.13;;;10.59;79.16
19005;BME280;9635;52.078;8.648;2023-03-21T14:16:25;100133.53;;;10.75;78.57
19005;BME280;9635;52.078;8.648;2023-03-21T14:21:31;100117.13;;;10.78;78.72
19005;BME280;9635;52.078;8.648;2023-03-21T14:26:35;100108.22;;;10.78;77.81
19005;BME280;9635;52.078;8.648;2023-03-21T14:31:40;100103.16;;;10.84;77.39
19005;BME280;9635;52.078;8.648;2023-03-21T14:36:44;100096.41;;;10.90;78.07
19005;BME280;9635;52.078;8.648;2023-03-21T14:42:02;100095.50;;;10.80;78.15
19005;BME280;9635;52.078;8.648;2023-03-21T14:47:16;100093.53;;;10.61;78.41
19005;BME280;9635;52.078;8.648;2023-03-21T14:52:22;100095.69;;;10.88;78.01
19005;BME280;9635;52.078;8.648;2023-03-21T14:57:27;100080.81;;;10.84;77.94
19005;BME280;9635;52.078;8.648;2023-03-21T15:02:34;100057.94;;;10.90;77.45
19005;BME280;9635;52.078;8.648;2023-03-21T15:07:38;100066.38;;;10.85;77.07
19005;BME280;9635;52.078;8.648;2023-03-21T15:12:49;100064.72;;;10.63;77.94
19005;BME280;9635;52.078;8.648;2023-03-21T15:17:55;100049.50;;;10.73;77.68
19005;BME280;9635;52.078;8.648;2023-03-21T15:23:03;100052.16;;;10.43;75.77
19005;BME280;9635;52.078;8.648;2023-03-21T15:28:12;100024.53;;;10.82;75.23
19005;BME280;9635;52.078;8.648;2023-03-21T15:33:17;100034.69;;;10.48;73.67
19005;BME280;9635;52.078;8.648;2023-03-21T15:38:23;100040.41;;;10.34;73.44
19005;BME280;9635;52.078;8.648;2023-03-21T15:43:36;100025.13;;;10.34;73.44
19005;BME280;9635;52.078;8.648;2023-03-21T15:48:43;100019.16;;;10.31;71.38
19005;BME280;9635;52.078;8.648;2023-03-21T15:53:46;100067.16;;;10.45;71.30
19005;BME280;9635;52.078;8.648;2023-03-21T15:58:51;100019.47;;;10.16;70.88
19005;BME280;9635;52.078;8.648;2023-03-21T16:03:57;100020.28;;;10.07;70.14
19005;BME280;9635;52.078;8.648;2023-03-21T16:09:09;100016.53;;;9.99;69.81
19005;BME280;9635;52.078;8.648;2023-03-21T16:14:14;100009.34;;;9.99;68.89
19005;BME280;9635;52.078;8.648;2023-03-21T16:19:19;100016.34;;;9.79;68.63
19005;BME280;9635;52.078;8.648;2023-03-21T16:24:22;100012.50;;;10.04;68.02
19005;BME280;9635;52.078;8.648;2023-03-21T16:29:25;100013.84;;;10.20;67.40
19005;BME280;9635;52.078;8.648;2023-03-21T16:34:29;100019.88;;;9.80;68.17
19005;BME280;9635;52.078;8.648;2023-03-21T16:39:32;100009.78;;;10.25;67.89
19005;BME280;9635;52.078;8.648;2023-03-21T16:44:35;100008.56;;;10.81;66.57
19005;BME280;9635;52.078;8.648;2023-03-21T16:49:41;100010.59;;;10.37;66.38
19005;BME280;9635;52.078;8.648;2023-03-21T16:54:44;99994.03;;;10.32;66.26
19005;BME280;9635;52.078;8.648;2023-03-21T16:59:46;100000.63;;;10.28;66.74
19005;BME280;9635;52.078;8.648;2023-03-21T17:04:50;100005.59;;;10.32;66.40
19005;BME280;9635;52.078;8.648;2023-03-21T17:09:53;100014.31;;;10.25;66.84
19005;BME280;9635;52.078;8.648;2023-03-21T17:14:56;100011.47;;;10.47;66.15
19005;BME280;9635;52.078;8.648;2023-03-21T17:20:00;100020.44;;;10.36;66.27
19005;BME280;9635;52.078;8.648;2023-03-21T17:25:04;100032.53;;;10.21;66.85
19005;BME280;9635;52.078;8.648;2023-03-21T17:30:17;100031.47;;;10.33;66.40
19005;BME280;9635;52.078;8.648;2023-03-21T17:35:23;100027.53;;;10.37;66.38
19005;BME280;9635;52.078;8.648;2023-03-21T17:40:29;100028.84;;;10.22;66.83
19005;BME280;9635;52.078;8.648;2023-03-21T17:45:32;100025.06;;;10.25;67.02
19005;BME280;9635;52.078;8.648;2023-03-21T17:50:36;100023.00;;;10.17;67.60
19005;BME280;9635;52.078;8.648;2023-03-21T17:55:40;100033.06;;;10.15;67.53
19005;BME280;9635;52.078;8.648;2023-03-21T18:00:44;100038.28;;;10.16;67.19
19005;BME280;9635;52.078;8.648;2023-03-21T18:05:48;100050.84;;;10.16;67.29
19005;BME280;9635;52.078;8.648;2023-03-21T18:10:51;100055.75;;;10.11;67.56
19005;BME280;9635;52.078;8.648;2023-03-21T18:15:54;100056.22;;;10.16;67.29
19005;BME280;9635;52.078;8.648;2023-03-21T18:20:58;100048.38;;;10.24;66.84
19005;BME280;9635;52.078;8.648;2023-03-21T18:26:02;100046.53;;;10.25;67.55
19005;BME280;9635;52.078;8.648;2023-03-21T18:31:06;100057.78;;;10.19;68.13
19005;BME280;9635;52.078;8.648;2023-03-21T18:36:20;100053.41;;;10.17;67.61
19005;BME280;9635;52.078;8.648;2023-03-21T18:41:26;100048.75;;;10.20;68.01
19005;BME280;9635;52.078;8.648;2023-03-21T18:46:30;100046.00;;;10.10;68.22
19005;BME280;9635;52.078;8.648;2023-03-21T18:51:34;100056.47;;;10.13;68.58
19005;BME280;9635;52.078;8.648;2023-03-21T18:56:37;100056.47;;;10.13;68.70
19005;BME280;9635;52.078;8.648;2023-03-21T19:02:00;100049.28;;;10.13;68.59
19005;BME280;9635;52.078;8.648;2023-03-21T19:07:05;100053.25;;;10.19;67.92
19005;BME280;9635;52.078;8.648;2023-03-21T19:12:08;100051.91;;;10.25;67.74
19005;BME280;9635;52.078;8.648;2023-03-21T19:17:11;100052.75;;;10.25;67.16
19005;BME280;9635;52.078;8.648;2023-03-21T19:22:36;100040.63;;;10.10;67.59
19005;BME280;9635;52.078;8.648;2023-03-21T19:27:39;100042.72;;;10.27;67.23
19005;BME280;9635;52.078;8.648;2023-03-21T19:32:42;100032.72;;;10.29;67.07
19005;BME280;9635;52.078;8.648;2023-03-21T19:37:46;100033.09;;;10.25;67.34
19005;BME280;9635;52.078;8.648;2023-03-21T19:42:49;100030.94;;;10.19;67.59
19005;BME280;9635;52.078;8.648;2023-03-21T19:47:53;100031.69;;;10.21;67.37
19005;BME280;9635;52.078;8.648;2023-03-21T19:52:57;100016.88;;;10.05;67.79
19005;BME280;9635;52.078;8.648;2023-03-21T19:58:00;100026.81;;;9.93;68.17
19005;BME280;9635;52.078;8.648;2023-03-21T20:03:03;100020.72;;;9.91;68.36
19005;BME280;9635;52.078;8.648;2023-03-21T20:08:10;100026.09;;;9.80;68.81
19005;BME280;9635;52.078;8.648;2023-03-21T20:13:13;100032.81;;;9.75;69.05
19005;BME280;9635;52.078;8.648;2023-03-21T20:18:16;100032.69;;;9.76;68.94
19005;BME280;9635;52.078;8.648;2023-03-21T20:23:20;100034.41;;;9.77;69.08
19005;BME280;9635;52.078;8.648;2023-03-21T20:28:23;100032.94;;;9.73;69.33
19005;BME280;9635;52.078;8.648;2023-03-21T20:33:29;100025.66;;;9.64;69.47
19005;BME280;9635;52.078;8.648;2023-03-21T20:38:34;100022.03;;;9.54;70.20
19005;BME280;9635;52.078;8.648;2023-03-21T20:43:37;100024.34;;;9.58;70.03
19005;BME280;9635;52.078;8.648;2023-03-21T20:49:00;100022.44;;;9.49;70.21
19005;BME280;9635;52.078;8.648;2023-03-21T20:54:04;100021.59;;;9.37;70.59
19005;BME280;9635;52.078;8.648;2023-03-21T20:59:09;100028.19;;;9.33;70.80
19005;BME280;9635;52.078;8.648;2023-03-21T21:04:27;100018.56;;;9.31;71.02
19005;BME280;9635;52.078;8.648;2023-03-21T21:09:52;100020.16;;;9.33;71.07
19005;BME280;9635;52.078;8.648;2023-03-21T21:14:55;100014.63;;;9.46;71.15
19005;BME280;9635;52.078;8.648;2023-03-21T21:19:58;100018.19;;;9.46;71.25
19005;BME280;9635;52.078;8.648;2023-03-21T21:25:04;100013.78;;;9.45;71.42
19005;BME280;9635;52.078;8.648;2023-03-21T21:30:08;100004.84;;;9.56;71.15
19005;BME280;9635;52.078;8.648;2023-03-21T21:35:11;99999.75;;;9.53;70.90
19005;BME280;9635;52.078;8.648;2023-03-21T21:40:15;99978.13;;;9.66;70.58
19005;BME280;9635;52.078;8.648;2023-03-21T21:45:21;99973.97;;;9.62;70.61
19005;BME280;9635;52.078;8.648;2023-03-21T21:50:23;99973.41;;;9.58;70.80
19005;BME280;9635;52.078;8.648;2023-03-21T21:55:28;99971.56;;;9.59;70.59
19005;BME280;9635;52.078;8.648;2023-03-21T22:00:31;99974.28;;;9.47;71.03
19005;BME280;9635;52.078;8.648;2023-03-21T22:05:34;99982.44;;;9.46;70.68
19005;BME280;9635;52.078;8.648;2023-03-21T22:10:39;99978.41;;;9.51;70.45
19005;BME280;9635;52.078;8.648;2023-03-21T22:15:44;99971.88;;;9.44;70.65
19005;BME280;9635;52.078;8.648;2023-03-21T22:20:49;99970.88;;;9.45;70.49
19005;BME280;9635;52.078;8.648;2023-03-21T22:25:55;99967.31;;;9.56;69.86
19005;BME280;9635;52.078;8.648;2023-03-21T22:31:06;99968.19;;;9.45;70.21
19005;BME280;9635;52.078;8.648;2023-03-21T22:36:10;99967.13;;;9.37;70.19
19005;BME280;9635;52.078;8.648;2023-03-21T22:41:14;99961.25;;;9.43;70.06
19005;BME280;9635;52.078;8.648;2023-03-21T22:46:17;99963.09;;;9.42;70.10
19005;BME280;9635;52.078;8.648;2023-03-21T22:51:20;99966.00;;;9.50;69.57
19005;BME280;9635;52.078;8.648;2023-03-21T22:56:24;99961.50;;;9.40;69.81
19005;BME280;9635;52.078;8.648;2023-03-21T23:01:27;99958.31;;;9.57;69.44
19005;BME280;9635;52.078;8.648;2023-03-21T23:06:32;99956.50;;;9.46;69.22
19005;BME280;9635;52.078;8.648;2023-03-21T23:11:36;99957.78;;;9.63;69.20
19005;BME280;9635;52.078;8.648;2023-03-21T23:16:39;99944.44;;;9.52;69.02
19005;BME280;9635;52.078;8.648;2023-03-21T23:21:42;99943.97;;;9.68;68.62
19005;BME280;9635;52.078;8.648;2023-03-21T23:26:48;99946.31;;;9.61;68.84
19005;BME280;9635;52.078;8.648;2023-03-21T23:31:50;99944.97;;;9.67;68.44
19005;BME280;9635;52.078;8.648;2023-03-21T23:36:53;99926.34;;;9.54;68.70
19005;BME280;9635;52.078;8.648;2023-03-21T23:41:58;99926.41;;;9.43;69.07
19005;BME280;9635;52.078;8.648;2023-03-21T23:47:00;99929.34;;;9.40;69.30
19005;BME280;9635;52.078;8.648;2023-03-21T23:52:04;99923.22;;;9.49;69.14
19005;BME280;9635;52.078;8.648;2023-03-21T23:57:08;99920.75;;;9.57;68.82
